Time;durP1;ratioP1;P1;durP2;ratioP2;P2;SDS_P1;SDS_P2;PMS_P1;PMS_P2;Temp;Humidity;BMP_temperature;BMP_pressure;BME280_temperature;BME280_humidity;BME280_pressure;Samples;Min_cycle;Max_cycle;Signal;HPM_P1;HPM_P2
2023/03/20 00:01:20;;;;;;;67.30;35.40;;;;;;;3.50;86.59;98033.92;109254;1255;75713;-79
2023/03/20 00:03:47;;;;;;;71.10;36.80;;;;;;;3.49;87.16;98036.91;109239;1254;72358;-78
2023/03/20 00:06:24;;;;;;;66.80;33.20;;;;;;;3.46;87.98;98034.11;109208;1255;71374;-79
2023/03/20 00:08:52;;;;;;;66.30;35.70;;;;;;;3.45;87.35;98033.86;109223;1254;58879;-79
2023/03/20 00:11:18;;;;;;;75.30;37.50;;;;;;;3.43;86.76;98029.11;109176;1254;60267;-79
2023/03/20 00:13:45;;;;;;;63.90;31.30;;;;;;;3.43;86.20;98032.66;109011;1254;59620;-77
2023/03/20 00:16:12;;;;;;;70.90;33.00;;;;;;;3.42;82.72;98035.35;108908;1255;71338;-80
2023/03/20 00:18:40;;;;;;;66.80;31.40;;;;;;;3.34;82.48;98035.23;109029;1254;59163;-79
2023/03/20 00:21:15;;;;;;;73.90;36.90;;;;;;;3.31;82.91;98037.14;109178;1254;59035;-79
2023/03/20 00:23:41;;;;;;;67.30;36.80;;;;;;;3.28;86.95;98038.30;109017;1259;59345;-79
2023/03/20 00:26:11;;;;;;;75.90;40.50;;;;;;;3.17;90.69;98036.60;109021;1254;59087;-78
2023/03/20 00:28:42;;;;;;;67.10;35.70;;;;;;;3.08;91.97;98032.38;108818;1255;70628;-79
2023/03/20 00:31:26;;;;;;;71.10;34.60;;;;;;;3.00;92.48;98033.83;108991;1254;71818;-78
2023/03/20 00:33:54;;;;;;;71.50;34.90;;;;;;;2.93;93.10;98031.09;109013;1255;59799;-79
2023/03/20 00:36:21;;;;;;;76.30;42.30;;;;;;;2.83;95.05;98029.57;109021;1255;58983;-79
2023/03/20 00:38:48;;;;;;;76.10;39.50;;;;;;;2.82;93.97;98028.80;109166;1254;74517;-79
2023/03/20 00:41:25;;;;;;;71.30;36.60;;;;;;;2.83;92.03;98027.15;109011;1254;70906;-79
2023/03/20 00:43:57;;;;;;;71.80;40.10;;;;;;;2.77;94.02;98027.23;109008;1256;72528;-79
2023/03/20 00:46:23;;;;;;;73.60;38.40;;;;;;;2.71;95.74;98027.15;109228;1254;58879;-79
2023/03/20 00:48:50;;;;;;;75.20;40.60;;;;;;;2.70;95.48;98026.76;109275;1258;58924;-80
2023/03/20 00:51:17;;;;;;;72.00;38.30;;;;;;;2.70;94.52;98028.04;109306;1256;73488;-79
2023/03/20 00:53:43;;;;;;;70.90;39.20;;;;;;;2.68;93.16;98030.91;109225;1255;71405;-79
2023/03/20 00:56:29;;;;;;;76.80;39.70;;;;;;;2.65;92.88;98032.31;108967;1256;59093;-78
2023/03/20 00:58:55;;;;;;;69.50;35.50;;;;;;;2.61;94.16;98022.78;109015;1258;59044;-78
2023/03/20 01:01:22;;;;;;;73.30;36.40;;;;;;;2.61;90.91;98023.59;108885;1254;59043;-79
2023/03/20 01:03:48;;;;;;;70.30;35.40;;;;;;;2.58;90.63;98027.27;108958;1254;74335;-80
2023/03/20 01:06:17;;;;;;;67.20;35.60;;;;;;;2.56;88.83;98023.88;108920;1254;70349;-78
2023/03/20 01:08:45;;;;;;;67.60;34.90;;;;;;;2.52;88.12;98021.48;108956;1254;72852;-79
2023/03/20 01:11:11;;;;;;;63.00;35.20;;;;;;;2.48;92.30;98023.30;108883;1254;59673;-79
2023/03/20 01:13:38;;;;;;;63.10;32.20;;;;;;;2.47;92.11;98025.56;109007;1254;59665;-78
2023/03/20 01:16:04;;;;;;;67.10;32.20;;;;;;;2.44;91.76;98025.77;108973;1257;59030;-79
2023/03/20 01:18:31;;;;;;;74.50;35.10;;;;;;;2.41;91.46;98024.73;109022;1256;69790;-79
2023/03/20 01:20:57;;;;;;;66.90;33.20;;;;;;;2.34;95.19;98021.75;109004;1258;59179;-78
2023/03/20 01:23:25;;;;;;;65.80;32.40;;;;;;;2.30;96.13;98022.33;109013;1254;59079;-78
2023/03/20 01:25:51;;;;;;;60.10;28.80;;;;;;;2.29;92.14;98020.88;108916;1254;61344;-78
2023/03/20 01:28:20;;;;;;;62.10;30.10;;;;;;;2.24;89.63;98022.14;109039;1254;59630;-79
2023/03/20 01:30:47;;;;;;;65.30;31.50;;;;;;;2.17;95.29;98020.97;108905;1255;70929;-78
2023/03/20 01:33:17;;;;;;;65.70;32.80;;;;;;;2.13;100.00;98025.52;108994;1254;72628;-79
2023/03/20 01:35:44;;;;;;;50.60;27.50;;;;;;;2.17;97.79;98028.69;109027;1255;59334;-79
2023/03/20 01:38:23;;;;;;;58.10;29.90;;;;;;;2.16;95.66;98030.36;109019;1255;59851;-79
2023/03/20 01:40:57;;;;;;;54.80;30.30;;;;;;;2.15;94.78;98028.20;109224;1256;75057;-79
2023/03/20 01:43:24;;;;;;;66.40;33.10;;;;;;;2.16;94.34;98023.20;109152;1254;70392;-79
2023/03/20 01:46:16;;;;;;;58.70;28.80;;;;;;;2.16;94.23;98023.15;109043;1254;72749;-78
2023/03/20 01:48:48;;;;;;;62.50;33.80;;;;;;;2.15;96.04;98025.64;108910;1256;200099;-80
2023/03/20 01:51:25;;;;;;;60.90;30.80;;;;;;;2.14;96.59;98025.33;108956;1255;61395;-79
2023/03/20 01:53:54;;;;;;;62.70;31.90;;;;;;;2.12;96.78;98024.52;109180;1254;73860;-79
2023/03/20 01:56:20;;;;;;;60.40;30.90;;;;;;;2.09;96.01;98024.02;109080;1254;70915;-79
2023/03/20 01:58:49;;;;;;;57.20;28.40;;;;;;;2.06;95.12;98023.26;109110;1259;71900;-78
2023/03/20 02:01:16;;;;;;;48.90;26.70;;;;;;;2.02;91.86;98022.63;109252;1258;58900;-79
2023/03/20 02:03:45;;;;;;;56.50;28.30;;;;;;;1.98;94.90;98024.95;109353;1254;58897;-80
2023/03/20 02:06:11;;;;;;;48.40;27.50;;;;;;;1.94;97.82;98024.89;109188;1254;74267;-78
2023/03/20 02:08:45;;;;;;;49.50;30.00;;;;;;;1.92;99.11;98026.81;109138;1253;70418;-79
2023/03/20 02:11:11;;;;;;;50.40;29.00;;;;;;;1.93;99.61;98032.81;108951;1253;71294;-78
2023/03/20 02:13:38;;;;;;;51.70;27.90;;;;;;;1.93;99.79;98032.64;108944;1255;59065;-78
2023/03/20 02:16:08;;;;;;;51.80;28.60;;;;;;;1.89;100.00;98034.42;109138;1253;59630;-79
2023/03/20 02:18:35;;;;;;;56.00;29.30;;;;;;;1.85;100.00;98032.04;109063;1258;74754;-79
2023/03/20 02:21:24;;;;;;;53.70;28.80;;;;;;;1.83;100.00;98035.02;108892;1254;59908;-78
2023/03/20 02:24:08;;;;;;;49.70;26.30;;;;;;;1.82;100.00;98032.98;109064;1254;73385;-78
2023/03/20 02:26:38;;;;;;;48.50;26.10;;;;;;;1.80;100.00;98032.73;109201;1254;58860;-79
2023/03/20 02:29:32;;;;;;;48.90;24.40;;;;;;;1.81;100.00;98031.15;109229;1254;60179;-79
2023/03/20 02:32:07;;;;;;;46.30;23.60;;;;;;;1.83;98.34;98029.23;109048;1254;73392;-79
2023/03/20 02:35:16;;;;;;;43.90;23.90;;;;;;;1.83;97.74;98031.08;109018;1254;70351;-78
2023/03/20 02:37:57;;;;;;;;;;;;;;;1.78;99.05;98033.19;108981;1254;72052;-79
2023/03/20 02:40:52;;;;;;;46.90;24.40;;;;;;;1.71;100.00;98031.43;109050;1254;59321;-79
2023/03/20 02:43:30;;;;;;;52.40;28.30;;;;;;;1.68;100.00;98033.95;109049;1254;59399;-78
2023/03/20 02:46:06;;;;;;;51.30;24.00;;;;;;;1.67;99.81;98035.24;109013;1254;74935;-78
2023/03/20 02:48:39;;;;;;;49.20;24.20;;;;;;;1.64;98.17;98031.38;109126;1252;71431;-78
2023/03/20 02:51:11;;;;;;;50.70;27.20;;;;;;;1.61;99.47;98025.89;109204;1254;71048;-78
2023/03/20 02:53:47;;;;;;;55.20;26.40;;;;;;;1.62;98.69;98025.06;109429;1254;59888;-78
2023/03/20 02:56:37;;;;;;;43.50;23.60;;;;;;;1.58;99.07;98022.06;109236;1254;60607;-79
2023/03/20 02:59:35;;;;;;;42.50;24.30;;;;;;;1.57;100.00;98021.17;109048;1254;75730;-78
2023/03/20 03:02:05;;;;;;;40.70;22.10;;;;;;;1.61;99.81;98020.23;108813;1254;72272;-78
2023/03/20 03:04:38;;;;;;;43.70;22.90;;;;;;;1.61;99.80;98019.48;108902;1254;72770;-79
2023/03/20 03:07:05;;;;;;;37.80;22.20;;;;;;;1.63;99.29;98017.54;109094;1254;59720;-78
2023/03/20 03:09:41;;;;;;;44.70;22.50;;;;;;;1.64;97.59;98015.52;108913;1254;60189;-79
2023/03/20 03:12:22;;;;;;;47.70;20.10;;;;;;;1.60;98.71;98018.06;109220;1254;74801;-79
2023/03/20 03:14:53;;;;;;;42.90;24.00;;;;;;;1.58;100.00;98016.98;108882;1254;70307;-78
2023/03/20 03:17:21;;;;;;;37.70;20.40;;;;;;;1.61;100.00;98018.90;108944;1254;73771;-78
2023/03/20 03:19:49;;;;;;;43.30;25.90;;;;;;;1.63;100.00;98022.11;108877;1254;59710;-79
2023/03/20 03:22:15;;;;;;;43.20;24.10;;;;;;;1.64;100.00;98022.95;108902;1254;59439;-78
2023/03/20 03:24:51;;;;;;;47.80;23.10;;;;;;;1.67;100.00;98023.57;108906;1254;59846;-78
2023/03/20 03:27:26;;;;;;;43.10;24.60;;;;;;;1.68;100.00;98017.97;109133;1259;69814;-78
2023/03/20 03:29:55;;;;;;;52.50;27.80;;;;;;;1.66;100.00;98016.23;109120;1254;72591;-79
2023/03/20 03:32:26;;;;;;;;;;;;;;;1.66;100.00;98017.25;109082;1254;59680;-79
2023/03/20 03:34:52;;;;;;;52.10;26.70;;;;;;;1.65;100.00;98018.55;109056;1254;58962;-78
2023/03/20 03:37:55;;;;;;;46.40;25.00;;;;;;;1.65;100.00;98011.72;108899;1254;59384;-79
2023/03/20 03:41:04;;;;;;;37.70;22.50;;;;;;;1.62;100.00;98013.15;109014;1254;70631;-78
2023/03/20 03:43:37;;;;;;;49.60;23.50;;;;;;;1.62;100.00;98013.35;109024;1254;72272;-79
2023/03/20 03:46:05;;;;;;;41.60;23.90;;;;;;;1.64;100.00;98013.96;109011;1254;59747;-78
2023/03/20 03:48:35;;;;;;;51.70;25.00;;;;;;;1.63;100.00;98013.46;109034;1254;60650;-79
2023/03/20 03:51:07;;;;;;;38.50;24.90;;;;;;;1.65;100.00;98010.95;109085;1254;75726;-78
2023/03/20 03:53:37;;;;;;;40.80;23.50;;;;;;;1.64;100.00;98010.88;109116;1258;69922;-78
2023/03/20 03:56:05;;;;;;;45.10;23.30;;;;;;;1.65;100.00;98007.86;108997;1254;71398;-77
2023/03/20 03:58:35;;;;;;;45.30;21.60;;;;;;;1.63;100.00;98006.77;109104;1254;58966;-79
2023/03/20 04:01:01;;;;;;;44.50;23.40;;;;;;;1.61;100.00;98008.43;109004;1254;59675;-79
2023/03/20 04:03:31;;;;;;;38.90;23.50;;;;;;;1.60;100.00;98008.32;109143;1254;73760;-79
2023/03/20 04:05:58;;;;;;;49.30;25.40;;;;;;;1.58;100.00;98007.15;108991;1254;71239;-79
2023/03/20 04:08:25;;;;;;;49.90;27.10;;;;;;;1.54;100.00;98010.33;109228;1254;71879;-78
2023/03/20 04:10:51;;;;;;;38.90;23.20;;;;;;;1.57;100.00;98015.48;109131;1254;59051;-77
2023/03/20 04:13:18;;;;;;;53.20;27.40;;;;;;;1.50;100.00;98012.16;109025;1254;59230;-78
2023/03/20 04:15:45;;;;;;;50.40;28.40;;;;;;;1.48;100.00;98011.29;109014;1254;59824;-80
2023/03/20 04:18:15;;;;;;;46.20;25.70;;;;;;;1.47;100.00;98004.93;109018;1254;71040;-80
2023/03/20 04:20:43;;;;;;;42.40;24.40;;;;;;;1.48;100.00;98005.85;109030;1254;71411;-79
2023/03/20 04:23:10;;;;;;;41.70;22.10;;;;;;;1.44;100.00;98005.95;109090;1254;59764;-80
2023/03/20 04:25:36;;;;;;;39.90;21.30;;;;;;;1.39;100.00;98008.02;109042;1254;60840;-78
2023/03/20 04:28:03;;;;;;;39.20;20.60;;;;;;;1.34;100.00;98010.88;109000;1254;59614;-78
2023/03/20 04:30:30;;;;;;;54.90;24.00;;;;;;;1.32;100.00;98012.68;109023;1254;70192;-79
2023/03/20 04:32:56;;;;;;;39.20;23.00;;;;;;;1.33;100.00;98007.48;109066;1254;72525;-78
2023/03/20 04:35:23;;;;;;;43.40;23.50;;;;;;;1.35;100.00;98008.16;109029;1254;59051;-78
2023/03/20 04:37:50;;;;;;;48.00;25.20;;;;;;;1.39;100.00;98009.45;109128;1254;59089;-78
2023/03/20 04:40:16;;;;;;;53.60;27.20;;;;;;;1.47;100.00;98008.16;109085;1254;75034;-78
2023/03/20 04:42:43;;;;;;;51.70;26.80;;;;;;;1.51;100.00;98006.85;109224;1254;70650;-78
2023/03/20 04:45:09;;;;;;;51.20;26.30;;;;;;;1.53;100.00;98008.67;109221;1254;71457;-79
2023/03/20 04:47:36;;;;;;;46.50;27.70;;;;;;;1.52;100.00;98012.75;109072;1254;58918;-79
2023/03/20 04:50:03;;;;;;;45.40;27.00;;;;;;;1.52;100.00;98013.38;109297;1254;58836;-79
2023/03/20 04:52:29;;;;;;;44.90;24.30;;;;;;;1.50;100.00;98008.89;109026;1254;74752;-78
2023/03/20 04:54:55;;;;;;;46.40;27.50;;;;;;;1.49;100.00;98010.70;109040;1254;59055;-78
2023/03/20 04:57:22;;;;;;;48.60;26.40;;;;;;;1.48;100.00;98012.04;109048;1254;59493;-78
2023/03/20 04:59:48;;;;;;;46.40;23.80;;;;;;;1.47;100.00;98013.73;109005;1254;59535;-78
2023/03/20 05:02:16;;;;;;;47.90;24.50;;;;;;;1.49;100.00;98012.46;109027;1254;59705;-79
2023/03/20 05:04:43;;;;;;;46.00;22.20;;;;;;;1.50;100.00;98016.85;109101;1254;74003;-78
2023/03/20 05:07:10;;;;;;;43.90;24.00;;;;;;;1.51;100.00;98022.05;109000;1254;70498;-78
2023/03/20 05:09:36;;;;;;;42.50;23.30;;;;;;;1.53;100.00;98024.62;109065;1254;59330;-78
2023/03/20 05:12:03;;;;;;;48.50;25.00;;;;;;;1.53;100.00;98030.21;109038;1254;59530;-78
2023/03/20 05:14:29;;;;;;;43.30;24.40;;;;;;;1.51;100.00;98032.73;109015;1254;58982;-77
2023/03/20 05:16:56;;;;;;;44.00;23.90;;;;;;;1.52;100.00;98033.63;109019;1254;59188;-78
2023/03/20 05:19:22;;;;;;;41.60;25.90;;;;;;;1.54;100.00;98032.42;109029;1254;59673;-79
2023/03/20 05:21:48;;;;;;;43.10;23.70;;;;;;;1.59;100.00;98029.61;109029;1254;59055;-77
2023/03/20 05:24:15;;;;;;;46.90;24.30;;;;;;;1.63;100.00;98034.14;108992;1254;59782;-78
2023/03/20 05:26:41;;;;;;;46.20;26.50;;;;;;;1.64;100.00;98034.17;109046;1254;59673;-79
2023/03/20 05:29:08;;;;;;;45.80;23.80;;;;;;;1.63;100.00;98035.70;109048;1254;59578;-79
2023/03/20 05:31:34;;;;;;;48.00;26.80;;;;;;;1.64;100.00;98038.66;109070;1254;59100;-79
2023/03/20 05:34:00;;;;;;;48.60;26.90;;;;;;;1.71;100.00;98040.63;109034;1254;59763;-78
2023/03/20 05:36:27;;;;;;;48.00;24.30;;;;;;;1.73;100.00;98040.73;109043;1254;59019;-79
2023/03/20 05:38:53;;;;;;;48.80;27.70;;;;;;;1.67;100.00;98037.95;109042;1254;59616;-79
2023/03/20 05:41:20;;;;;;;51.60;27.30;;;;;;;1.68;100.00;98039.98;109033;1254;59439;-79
2023/03/20 05:43:46;;;;;;;54.00;28.90;;;;;;;1.73;100.00;98040.98;109024;1254;59740;-79
2023/03/20 05:46:13;;;;;;;61.70;30.10;;;;;;;1.77;100.00;98040.02;108891;1254;59073;-78
2023/03/20 05:48:39;;;;;;;49.00;27.20;;;;;;;1.80;100.00;98042.26;109011;1254;59330;-78
2023/03/20 05:51:06;;;;;;;49.40;26.00;;;;;;;1.81;100.00;98041.46;109041;1254;59239;-80
2023/03/20 05:53:32;;;;;;;46.50;22.70;;;;;;;1.85;100.00;98043.63;109037;1254;59717;-78
2023/03/20 05:55:59;;;;;;;43.70;24.40;;;;;;;1.93;100.00;98040.45;109007;1254;59727;-78
2023/03/20 05:58:25;;;;;;;46.40;24.40;;;;;;;2.00;100.00;98042.31;109036;1254;59367;-78
2023/03/20 06:00:52;;;;;;;58.20;24.60;;;;;;;2.07;100.00;98040.95;109043;1254;59782;-80
2023/03/20 06:03:18;;;;;;;40.70;23.40;;;;;;;2.12;100.00;98042.20;109064;1254;59052;-80
2023/03/20 06:05:44;;;;;;;48.30;24.80;;;;;;;2.13;100.00;98037.55;109022;1254;59748;-79
2023/03/20 06:08:11;;;;;;;58.40;22.70;;;;;;;2.18;100.00;98039.33;109073;1254;60279;-78
2023/03/20 06:10:37;;;;;;;43.20;24.00;;;;;;;2.19;100.00;98040.77;108997;1254;59241;-80
2023/03/20 06:13:04;;;;;;;46.30;25.10;;;;;;;2.23;100.00;98043.08;109035;1254;59332;-79
2023/03/20 06:15:30;;;;;;;40.10;22.30;;;;;;;2.32;100.00;98047.05;109111;1253;59070;-78
2023/03/20 06:17:57;;;;;;;40.50;22.80;;;;;;;2.40;100.00;98046.23;109014;1254;59839;-78
2023/03/20 06:20:25;;;;;;;48.30;25.70;;;;;;;2.48;100.00;98050.25;109024;1254;59331;-80
2023/03/20 06:22:51;;;;;;;41.80;24.40;;;;;;;2.55;100.00;98052.86;109015;1254;73821;-79
2023/03/20 06:25:18;;;;;;;45.20;24.60;;;;;;;2.62;100.00;98054.48;108862;1256;59595;-78
2023/03/20 06:27:45;;;;;;;48.80;24.20;;;;;;;2.75;100.00;98055.09;109044;1254;59335;-80
2023/03/20 06:30:12;;;;;;;57.20;27.50;;;;;;;2.90;100.00;98053.55;109083;1254;75733;-78
2023/03/20 06:32:39;;;;;;;49.10;28.00;;;;;;;3.07;100.00;98057.89;109056;1254;71428;-80
2023/03/20 06:35:06;;;;;;;53.80;28.20;;;;;;;3.22;100.00;98059.09;109024;1254;59567;-79
2023/03/20 06:37:32;;;;;;;50.30;28.60;;;;;;;3.41;100.00;98061.37;109011;1254;59044;-78
2023/03/20 06:39:59;;;;;;;63.50;30.70;;;;;;;3.55;100.00;98059.23;109108;1253;58932;-78
2023/03/20 06:42:25;;;;;;;56.30;33.80;;;;;;;3.74;100.00;98058.30;109011;1253;59394;-79
2023/03/20 06:44:52;;;;;;;55.80;31.20;;;;;;;3.93;100.00;98058.98;109067;1254;59629;-79
2023/03/20 06:47:18;;;;;;;44.70;27.10;;;;;;;4.08;100.00;98065.10;109121;1254;60187;-79
2023/03/20 06:49:45;;;;;;;45.90;26.40;;;;;;;4.24;100.00;98066.86;108945;1254;59180;-80
2023/03/20 06:52:16;;;;;;;47.40;22.40;;;;;;;4.42;100.00;98065.52;108902;1254;59254;-78
2023/03/20 06:54:43;;;;;;;47.00;22.40;;;;;;;4.63;99.99;98066.23;108931;1254;74554;-78
2023/03/20 06:57:09;;;;;;;47.00;23.80;;;;;;;4.83;100.00;98065.58;108753;1258;70408;-80
2023/03/20 06:59:36;;;;;;;44.20;23.00;;;;;;;4.99;98.48;98072.30;108743;1254;73365;-78
2023/03/20 07:02:03;;;;;;;36.00;22.10;;;;;;;5.08;97.36;98072.77;108745;1254;59503;-80
2023/03/20 07:04:30;;;;;;;42.00;24.00;;;;;;;5.27;98.85;98073.64;108764;1254;60656;-80
2023/03/20 07:06:57;;;;;;;44.20;23.10;;;;;;;5.42;97.28;98071.83;109000;1254;77827;-79
2023/03/20 07:09:23;;;;;;;43.50;22.90;;;;;;;5.47;95.34;98072.28;109013;1254;69798;-78
2023/03/20 07:11:50;;;;;;;40.90;23.60;;;;;;;5.58;94.84;98073.02;108969;1254;71740;-78
2023/03/20 07:14:17;;;;;;;52.60;23.30;;;;;;;5.71;94.18;98075.06;108823;1260;59831;-79
2023/03/20 07:16:43;;;;;;;43.70;23.80;;;;;;;5.89;95.50;98075.00;109038;1254;59041;-80
2023/03/20 07:19:12;;;;;;;44.40;23.60;;;;;;;6.07;95.75;98074.52;108919;1254;59524;-80
2023/03/20 07:21:38;;;;;;;44.10;22.10;;;;;;;6.24;95.46;98074.56;109029;1253;70382;-79
2023/03/20 07:24:06;;;;;;;51.50;23.70;;;;;;;6.43;94.77;98070.71;108731;1254;72807;-78
2023/03/20 07:26:32;;;;;;;39.80;22.20;;;;;;;6.58;91.67;98068.62;108699;1254;60893;-80
2023/03/20 07:28:59;;;;;;;522.50;271.50;;;;;;;7.00;92.26;98064.58;108779;1254;59057;-79
2023/03/20 07:31:27;;;;;;;103.80;56.20;;;;;;;7.19;91.13;98065.94;108808;1254;60653;-77
2023/03/20 07:33:54;;;;;;;46.20;29.10;;;;;;;7.34;90.22;98068.05;108784;1256;70285;-79
2023/03/20 07:36:20;;;;;;;43.30;27.80;;;;;;;7.49;89.92;98074.05;108591;1254;72758;-79
2023/03/20 07:38:47;;;;;;;44.00;23.90;;;;;;;7.72;89.71;98069.95;108763;1254;59615;-78
2023/03/20 07:41:14;;;;;;;53.20;30.90;;;;;;;7.77;87.02;98067.34;108732;1257;59413;-78
2023/03/20 07:43:40;;;;;;;39.70;27.50;;;;;;;7.91;86.08;98066.55;108854;1253;74004;-78
2023/03/20 07:46:07;;;;;;;35.20;22.10;;;;;;;8.08;86.83;98066.17;109089;1253;59377;-79
2023/03/20 07:48:35;;;;;;;46.10;24.40;;;;;;;8.26;88.74;98072.84;108781;1254;72925;-78
2023/03/20 07:51:01;;;;;;;82.40;23.50;;;;;;;8.49;89.18;98075.17;108774;1254;59532;-79
2023/03/20 07:53:28;;;;;;;37.00;22.70;;;;;;;8.38;86.23;98076.80;108616;1258;60342;-78
2023/03/20 07:55:54;;;;;;;46.40;25.90;;;;;;;8.39;88.36;98071.63;108796;1254;74538;-78
2023/03/20 07:58:21;;;;;;;63.00;29.80;;;;;;;8.47;88.75;98075.50;108774;1253;60390;-79
2023/03/20 08:00:47;;;;;;;47.90;30.80;;;;;;;8.67;88.05;98074.27;108782;1253;73456;-78
2023/03/20 08:03:14;;;;;;;59.10;30.80;;;;;;;9.24;84.26;98075.02;109041;1254;59461;-78
2023/03/20 08:05:40;;;;;;;41.70;25.80;;;;;;;10.75;83.80;98073.30;109002;1254;60609;-80
2023/03/20 08:08:07;;;;;;;39.60;19.90;;;;;;;12.48;84.21;98077.87;109085;1254;59823;-79
2023/03/20 08:10:33;;;;;;;27.90;18.10;;;;;;;13.84;80.89;98073.84;108851;1258;69889;-80
2023/03/20 08:13:00;;;;;;;111.30;25.80;;;;;;;14.89;73.87;98070.77;108995;1254;59361;-80
2023/03/20 08:15:26;;;;;;;37.60;20.60;;;;;;;15.07;67.91;98068.55;109002;1254;59790;-79
2023/03/20 08:17:53;;;;;;;28.60;17.60;;;;;;;14.99;68.12;98066.66;108855;1254;59391;-80
2023/03/20 08:20:20;;;;;;;22.00;14.30;;;;;;;15.83;64.47;98067.41;108642;1254;74678;-80
2023/03/20 08:22:48;;;;;;;21.10;14.00;;;;;;;16.18;56.56;98065.79;109009;1254;71126;-81
2023/03/20 08:25:15;;;;;;;24.80;15.00;;;;;;;16.99;55.10;98062.42;108857;1255;71735;-81
2023/03/20 08:27:42;;;;;;;22.30;15.10;;;;;;;17.94;49.65;98057.02;109047;1252;59677;-79
2023/03/20 08:30:09;;;;;;;18.40;14.10;;;;;;;18.81;47.60;98053.94;109028;1255;59262;-81
2023/03/20 08:32:36;;;;;;;21.10;15.30;;;;;;;19.80;47.41;98050.73;109033;1255;72700;-79
2023/03/20 08:35:03;;;;;;;22.60;17.20;;;;;;;20.87;44.30;98051.23;108920;1254;70247;-81
2023/03/20 08:37:29;;;;;;;27.90;17.90;;;;;;;21.25;34.89;98050.04;109034;1254;72424;-79
2023/03/20 08:39:56;;;;;;;23.10;14.70;;;;;;;21.95;36.65;98050.75;109053;1253;59652;-81
2023/03/20 08:42:22;;;;;;;21.20;12.60;;;;;;;22.14;35.16;98046.84;109036;1254;59583;-81
2023/03/20 08:44:49;;;;;;;17.50;11.80;;;;;;;21.99;30.58;98042.02;109007;1254;59187;-79
2023/03/20 08:47:15;;;;;;;12.40;10.90;;;;;;;22.20;31.56;98039.75;108877;1254;70201;-81
2023/03/20 08:49:42;;;;;;;17.40;10.90;;;;;;;22.59;29.51;98043.88;109054;1253;72360;-80
2023/03/20 08:52:09;;;;;;;13.20;9.20;;;;;;;23.14;28.46;98042.00;108971;1254;59771;-81
2023/03/20 08:54:35;;;;;;;14.30;9.60;;;;;;;23.06;29.79;98040.04;108968;1254;59294;-81
2023/03/20 08:57:01;;;;;;;11.60;8.70;;;;;;;22.37;30.60;98036.46;108974;1254;59316;-80
2023/03/20 08:59:28;;;;;;;14.70;10.30;;;;;;;21.07;30.67;98042.98;108928;1254;59108;-80
2023/03/20 09:01:55;;;;;;;17.60;11.30;;;;;;;18.85;33.58;98036.10;108779;1259;71663;-78
2023/03/20 09:04:21;;;;;;;19.60;13.50;;;;;;;18.67;36.46;98032.45;108787;1254;59396;-80
2023/03/20 09:06:48;;;;;;;15.90;11.90;;;;;;;18.16;37.86;98035.29;109027;1254;59538;-80
2023/03/20 09:09:17;;;;;;;20.40;13.50;;;;;;;17.31;38.82;98038.16;108771;1254;75791;-79
2023/03/20 09:11:44;;;;;;;17.30;12.60;;;;;;;16.34;41.02;98040.73;108867;1254;71146;-80
2023/03/20 09:14:11;;;;;;;19.20;13.60;;;;;;;15.67;43.63;98040.74;108978;1253;71584;-80
2023/03/20 09:16:38;;;;;;;23.70;15.10;;;;;;;15.14;45.24;98038.05;108956;1254;59485;-80
2023/03/20 09:19:05;;;;;;;21.20;13.60;;;;;;;14.54;47.38;98034.30;109014;1253;60481;-78
2023/03/20 09:21:32;;;;;;;22.10;15.60;;;;;;;14.33;48.40;98033.90;108850;1254;74828;-80
2023/03/20 09:23:58;;;;;;;22.70;15.10;;;;;;;14.05;49.87;98034.95;109027;1254;70790;-77
2023/03/20 09:26:25;;;;;;;29.60;20.30;;;;;;;13.92;50.68;98034.80;108986;1253;59954;-79
2023/03/20 09:28:51;;;;;;;19.90;14.30;;;;;;;13.83;51.80;98034.15;108970;1254;59222;-79
2023/03/20 09:31:17;;;;;;;21.20;14.60;;;;;;;13.54;53.12;98034.62;108992;1254;59037;-80
2023/03/20 09:33:44;;;;;;;28.20;16.90;;;;;;;13.46;53.99;98036.77;108966;1255;59387;-80
2023/03/20 09:36:11;;;;;;;21.30;15.10;;;;;;;13.33;54.69;98038.06;108795;1254;59732;-78
2023/03/20 09:38:40;;;;;;;24.20;16.30;;;;;;;13.49;54.66;98035.95;108965;1252;72867;-79
2023/03/20 09:41:13;;;;;;;23.20;13.40;;;;;;;13.62;54.12;98038.73;109065;1254;59351;-77
2023/03/20 09:44:11;;;;;;;21.10;14.70;;;;;;;13.54;54.79;98037.39;108870;1254;60053;-79
2023/03/20 09:46:41;;;;;;;23.70;15.30;;;;;;;13.40;54.80;98040.56;108839;1254;75799;-79
2023/03/20 09:49:29;;;;;;;19.60;12.60;;;;;;;13.47;54.51;98036.09;108728;1253;70643;-78
2023/03/20 09:52:00;;;;;;;20.90;13.20;;;;;;;13.43;55.06;98037.19;108796;1254;72642;-80
2023/03/20 09:54:37;;;;;;;22.70;13.70;;;;;;;13.62;54.64;98032.77;109005;1254;59528;-80
2023/03/20 09:57:03;;;;;;;22.50;12.70;;;;;;;13.56;54.46;98041.16;109029;1253;61030;-80
2023/03/20 09:59:31;;;;;;;19.00;13.50;;;;;;;13.58;54.58;98037.70;108890;1253;73357;-78
2023/03/20 10:02:14;;;;;;;21.10;13.70;;;;;;;14.03;54.03;98036.00;108810;1256;71149;-79
2023/03/20 10:04:41;;;;;;;19.50;13.20;;;;;;;14.28;52.39;98030.08;108656;1254;70937;-78
2023/03/20 10:07:09;;;;;;;18.80;12.00;;;;;;;14.45;51.93;98032.86;108621;1254;60927;-80
2023/03/20 10:09:36;;;;;;;19.40;13.10;;;;;;;14.31;51.47;98033.89;108594;1254;61454;-78
2023/03/20 10:12:08;;;;;;;17.80;12.70;;;;;;;14.54;51.53;98032.25;108857;1254;59037;-80
2023/03/20 10:14:49;;;;;;;24.30;13.20;;;;;;;14.65;51.19;98030.16;108999;1254;70730;-80
2023/03/20 10:17:28;;;;;;;19.50;12.60;;;;;;;14.68;50.97;98027.31;108957;1256;71565;-78
2023/03/20 10:20:10;;;;;;;19.80;13.90;;;;;;;14.78;50.39;98028.95;108958;1255;59500;-80
2023/03/20 10:22:43;;;;;;;23.20;14.00;;;;;;;14.83;50.02;98028.80;108609;1256;60052;-79
2023/03/20 10:25:16;;;;;;;19.80;12.10;;;;;;;14.87;48.88;98027.66;108912;1255;74543;-79
2023/03/20 10:27:45;;;;;;;23.20;12.50;;;;;;;14.93;48.74;98025.84;108950;1254;70180;-82
2023/03/20 10:31:03;;;;;;;31.90;21.40;;;;;;;15.04;49.33;98021.05;108911;1253;73054;-80
2023/03/20 10:33:46;;;;;;;23.40;12.40;;;;;;;15.04;49.09;98019.46;108763;1254;59496;-78
2023/03/20 10:36:34;;;;;;;17.60;12.00;;;;;;;14.65;49.33;98022.30;109005;1254;59892;-80
2023/03/20 10:39:04;;;;;;;16.80;10.70;;;;;;;14.47;50.24;98021.37;108974;1253;75158;-80
2023/03/20 10:41:35;;;;;;;17.80;10.70;;;;;;;14.34;50.97;98016.21;109001;1253;71362;-79
2023/03/20 10:44:02;;;;;;;19.80;11.50;;;;;;;14.01;52.35;98014.70;108983;1254;72423;-79
2023/03/20 10:46:40;;;;;;;13.90;9.90;;;;;;;13.84;53.85;98011.54;109040;1254;59121;-78
2023/03/20 10:49:10;;;;;;;17.50;11.30;;;;;;;13.74;54.41;98012.05;108918;1254;59635;-80
2023/03/20 10:51:46;;;;;;;14.60;10.30;;;;;;;13.52;54.32;98005.46;109007;1254;75715;-80
2023/03/20 10:54:19;;;;;;;16.90;10.60;;;;;;;13.42;54.51;98003.56;108986;1254;70411;-77
2023/03/20 10:56:47;;;;;;;18.90;10.10;;;;;;;13.44;54.48;98000.71;108925;1255;70658;-78
2023/03/20 10:59:21;;;;;;;18.20;11.80;;;;;;;13.52;54.61;98002.80;109174;1255;59054;-78
2023/03/20 11:01:47;;;;;;;15.90;10.70;;;;;;;13.53;54.52;98002.19;108881;1254;60050;-78
2023/03/20 11:04:14;;;;;;;17.00;11.30;;;;;;;13.49;54.85;98002.80;109060;1253;59702;-78
2023/03/20 11:06:54;;;;;;;20.90;13.30;;;;;;;13.55;55.01;98003.99;109027;1254;59394;-80
2023/03/20 11:09:22;;;;;;;19.00;12.20;;;;;;;13.47;55.11;98001.69;108896;1254;72275;-80
2023/03/20 11:11:50;;;;;;;17.30;12.10;;;;;;;13.44;55.26;98000.36;108997;1254;59206;-79
2023/03/20 11:14:21;;;;;;;17.60;11.40;;;;;;;13.62;55.33;97999.55;108986;1254;61752;-78
2023/03/20 11:16:50;;;;;;;17.10;11.20;;;;;;;13.64;55.44;97997.79;109035;1254;74800;-78
2023/03/20 11:19:18;;;;;;;16.10;11.30;;;;;;;13.67;55.29;97997.85;108979;1254;71858;-80
2023/03/20 11:21:49;;;;;;;20.20;12.10;;;;;;;13.87;55.38;97994.70;108999;1255;72111;-76
2023/03/20 11:24:43;;;;;;;18.50;12.30;;;;;;;14.09;54.96;97992.74;108942;1253;59161;-79